sensor_id;sensor_type;location;lat;lon;timestamp;P1;durP1;ratioP1;P2;durP2;ratioP2
16468;SDS011;8345;50.902;6.956;2023-05-07T00:01:43;4.33;;;3.93;;
16468;SDS011;8345;50.902;6.956;2023-05-07T00:04:10;4.43;;;3.87;;
16468;SDS011;8345;50.902;6.956;2023-05-07T00:06:38;4.30;;;3.70;;
16468;SDS011;8345;50.902;6.956;2023-05-07T00:09:05;3.40;;;3.13;;
16468;SDS011;8345;50.902;6.956;2023-05-07T00:11:33;3.30;;;3.10;;
16468;SDS011;8345;50.902;6.956;2023-05-07T00:14:01;4.30;;;3.53;;
16468;SDS011;8345;50.902;6.956;2023-05-07T00:16:28;5.20;;;3.97;;
16468;SDS011;8345;50.902;6.956;2023-05-07T00:18:56;3.50;;;3.20;;
16468;SDS011;8345;50.902;6.956;2023-05-07T00:21:23;3.37;;;3.07;;
16468;SDS011;8345;50.902;6.956;2023-05-07T00:23:51;3.97;;;3.57;;
16468;SDS011;8345;50.902;6.956;2023-05-07T00:26:18;4.10;;;3.80;;
16468;SDS011;8345;50.902;6.956;2023-05-07T00:28:46;4.07;;;3.73;;
16468;SDS011;8345;50.902;6.956;2023-05-07T00:31:15;3.80;;;3.50;;
16468;SDS011;8345;50.902;6.956;2023-05-07T00:33:42;4.70;;;4.30;;
16468;SDS011;8345;50.902;6.956;2023-05-07T00:36:09;4.50;;;4.10;;
16468;SDS011;8345;50.902;6.956;2023-05-07T00:38:36;4.83;;;4.37;;
16468;SDS011;8345;50.902;6.956;2023-05-07T00:41:03;3.93;;;3.57;;
16468;SDS011;8345;50.902;6.956;2023-05-07T00:43:30;3.90;;;3.50;;
16468;SDS011;8345;50.902;6.956;2023-05-07T00:45:58;3.43;;;3.20;;
16468;SDS011;8345;50.902;6.956;2023-05-07T00:48:27;3.97;;;3.53;;
16468;SDS011;8345;50.902;6.956;2023-05-07T00:50:54;4.10;;;3.73;;
16468;SDS011;8345;50.902;6.956;2023-05-07T00:53:21;3.70;;;3.40;;
16468;SDS011;8345;50.902;6.956;2023-05-07T00:55:48;4.17;;;3.77;;
16468;SDS011;8345;50.902;6.956;2023-05-07T00:58:16;5.33;;;3.67;;
16468;SDS011;8345;50.902;6.956;2023-05-07T01:00:43;4.30;;;3.90;;
16468;SDS011;8345;50.902;6.956;2023-05-07T01:03:11;3.77;;;3.40;;
16468;SDS011;8345;50.902;6.956;2023-05-07T01:05:39;3.43;;;3.13;;
16468;SDS011;8345;50.902;6.956;2023-05-07T01:08:07;4.10;;;3.00;;
16468;SDS011;8345;50.902;6.956;2023-05-07T01:10:35;4.00;;;3.70;;
16468;SDS011;8345;50.902;6.956;2023-05-07T01:13:02;3.90;;;3.60;;
16468;SDS011;8345;50.902;6.956;2023-05-07T01:15:30;3.90;;;3.30;;
16468;SDS011;8345;50.902;6.956;2023-05-07T01:17:57;3.83;;;3.43;;
16468;SDS011;8345;50.902;6.956;2023-05-07T01:20:24;3.40;;;3.20;;
16468;SDS011;8345;50.902;6.956;2023-05-07T01:22:53;5.10;;;3.20;;
16468;SDS011;8345;50.902;6.956;2023-05-07T01:25:21;4.43;;;4.00;;
16468;SDS011;8345;50.902;6.956;2023-05-07T01:27:48;3.83;;;3.33;;
16468;SDS011;8345;50.902;6.956;2023-05-07T01:30:16;3.43;;;3.23;;
16468;SDS011;8345;50.902;6.956;2023-05-07T01:32:44;4.73;;;3.57;;
16468;SDS011;8345;50.902;6.956;2023-05-07T01:35:13;3.70;;;3.40;;
16468;SDS011;8345;50.902;6.956;2023-05-07T01:37:42;5.97;;;3.80;;
16468;SDS011;8345;50.902;6.956;2023-05-07T01:40:11;3.83;;;3.33;;
16468;SDS011;8345;50.902;6.956;2023-05-07T01:42:38;4.00;;;3.23;;
16468;SDS011;8345;50.902;6.956;2023-05-07T01:45:06;3.73;;;3.30;;
16468;SDS011;8345;50.902;6.956;2023-05-07T01:47:33;3.50;;;3.20;;
16468;SDS011;8345;50.902;6.956;2023-05-07T01:50:00;3.83;;;3.00;;
16468;SDS011;8345;50.902;6.956;2023-05-07T01:52:29;3.43;;;3.20;;
16468;SDS011;8345;50.902;6.956;2023-05-07T01:54:56;3.60;;;3.30;;
16468;SDS011;8345;50.902;6.956;2023-05-07T01:57:25;4.80;;;2.90;;
16468;SDS011;8345;50.902;6.956;2023-05-07T01:59:52;3.00;;;2.80;;
16468;SDS011;8345;50.902;6.956;2023-05-07T02:02:19;3.67;;;3.37;;
16468;SDS011;8345;50.902;6.956;2023-05-07T02:04:46;3.37;;;3.17;;
16468;SDS011;8345;50.902;6.956;2023-05-07T02:07:14;3.97;;;3.20;;
16468;SDS011;8345;50.902;6.956;2023-05-07T02:09:41;3.83;;;3.53;;
16468;SDS011;8345;50.902;6.956;2023-05-07T02:12:08;3.67;;;3.37;;
16468;SDS011;8345;50.902;6.956;2023-05-07T02:14:36;3.87;;;3.00;;
16468;SDS011;8345;50.902;6.956;2023-05-07T02:17:04;3.57;;;3.20;;
16468;SDS011;8345;50.902;6.956;2023-05-07T02:19:31;3.70;;;3.40;;
16468;SDS011;8345;50.902;6.956;2023-05-07T02:21:58;3.90;;;3.60;;
16468;SDS011;8345;50.902;6.956;2023-05-07T02:24:25;3.10;;;2.90;;
16468;SDS011;8345;50.902;6.956;2023-05-07T02:26:52;3.50;;;2.93;;
16468;SDS011;8345;50.902;6.956;2023-05-07T02:29:19;3.53;;;3.23;;
16468;SDS011;8345;50.902;6.956;2023-05-07T02:31:48;4.03;;;3.53;;
16468;SDS011;8345;50.902;6.956;2023-05-07T02:34:17;3.73;;;3.43;;
16468;SDS011;8345;50.902;6.956;2023-05-07T02:36:45;4.67;;;3.53;;
16468;SDS011;8345;50.902;6.956;2023-05-07T02:39:12;4.20;;;3.53;;
16468;SDS011;8345;50.902;6.956;2023-05-07T02:41:40;3.60;;;3.30;;
16468;SDS011;8345;50.902;6.956;2023-05-07T02:44:07;3.67;;;3.37;;
16468;SDS011;8345;50.902;6.956;2023-05-07T02:46:34;3.47;;;3.27;;
16468;SDS011;8345;50.902;6.956;2023-05-07T02:49:03;3.40;;;3.10;;
16468;SDS011;8345;50.902;6.956;2023-05-07T02:51:31;3.53;;;3.10;;
16468;SDS011;8345;50.902;6.956;2023-05-07T02:53:58;3.77;;;3.23;;
16468;SDS011;8345;50.902;6.956;2023-05-07T02:56:26;3.63;;;3.07;;
16468;SDS011;8345;50.902;6.956;2023-05-07T02:58:53;3.70;;;3.37;;
16468;SDS011;8345;50.902;6.956;2023-05-07T03:01:20;3.80;;;3.50;;
16468;SDS011;8345;50.902;6.956;2023-05-07T03:03:47;3.43;;;3.13;;
16468;SDS011;8345;50.902;6.956;2023-05-07T03:06:16;3.40;;;3.10;;
16468;SDS011;8345;50.902;6.956;2023-05-07T03:08:43;4.33;;;3.30;;
16468;SDS011;8345;50.902;6.956;2023-05-07T03:11:10;3.40;;;3.10;;
16468;SDS011;8345;50.902;6.956;2023-05-07T03:13:38;3.80;;;3.40;;
16468;SDS011;8345;50.902;6.956;2023-05-07T03:16:05;4.30;;;3.40;;
16468;SDS011;8345;50.902;6.956;2023-05-07T03:18:32;3.13;;;2.93;;
16468;SDS011;8345;50.902;6.956;2023-05-07T03:20:59;3.43;;;3.03;;
16468;SDS011;8345;50.902;6.956;2023-05-07T03:23:28;3.60;;;3.30;;
16468;SDS011;8345;50.902;6.956;2023-05-07T03:25:56;3.80;;;3.50;;
16468;SDS011;8345;50.902;6.956;2023-05-07T03:28:23;3.30;;;3.00;;
16468;SDS011;8345;50.902;6.956;2023-05-07T03:30:50;3.37;;;3.07;;
16468;SDS011;8345;50.902;6.956;2023-05-07T03:33:17;4.13;;;3.13;;
16468;SDS011;8345;50.902;6.956;2023-05-07T03:35:44;3.70;;;3.43;;
16468;SDS011;8345;50.902;6.956;2023-05-07T03:38:11;3.93;;;3.07;;
16468;SDS011;8345;50.902;6.956;2023-05-07T03:40:40;3.17;;;2.87;;
16468;SDS011;8345;50.902;6.956;2023-05-07T03:43:07;4.47;;;3.30;;
16468;SDS011;8345;50.902;6.956;2023-05-07T03:45:34;3.60;;;3.27;;
16468;SDS011;8345;50.902;6.956;2023-05-07T03:48:02;3.37;;;3.07;;
16468;SDS011;8345;50.902;6.956;2023-05-07T03:50:29;5.13;;;3.57;;
16468;SDS011;8345;50.902;6.956;2023-05-07T03:52:56;4.70;;;3.77;;
16468;SDS011;8345;50.902;6.956;2023-05-07T03:55:23;4.20;;;3.47;;
16468;SDS011;8345;50.902;6.956;2023-05-07T03:57:53;3.47;;;3.17;;
16468;SDS011;8345;50.902;6.956;2023-05-07T04:00:21;3.43;;;3.13;;
16468;SDS011;8345;50.902;6.956;2023-05-07T04:02:49;3.40;;;3.13;;
16468;SDS011;8345;50.902;6.956;2023-05-07T04:05:16;3.40;;;3.10;;
16468;SDS011;8345;50.902;6.956;2023-05-07T04:07:43;3.83;;;3.37;;
16468;SDS011;8345;50.902;6.956;2023-05-07T04:10:10;4.40;;;3.47;;
16468;SDS011;8345;50.902;6.956;2023-05-07T04:12:38;3.10;;;2.90;;
16468;SDS011;8345;50.902;6.956;2023-05-07T04:15:07;4.40;;;3.70;;
16468;SDS011;8345;50.902;6.956;2023-05-07T04:17:34;3.17;;;2.87;;
16468;SDS011;8345;50.902;6.956;2023-05-07T04:20:02;3.20;;;2.90;;
16468;SDS011;8345;50.902;6.956;2023-05-07T04:22:29;4.10;;;2.97;;
16468;SDS011;8345;50.902;6.956;2023-05-07T04:24:56;3.20;;;2.83;;
16468;SDS011;8345;50.902;6.956;2023-05-07T04:27:23;6.03;;;2.97;;
16468;SDS011;8345;50.902;6.956;2023-05-07T04:29:51;3.27;;;2.97;;
16468;SDS011;8345;50.902;6.956;2023-05-07T04:32:22;4.10;;;2.93;;
16468;SDS011;8345;50.902;6.956;2023-05-07T04:34:50;3.20;;;2.90;;
16468;SDS011;8345;50.902;6.956;2023-05-07T04:37:17;3.33;;;3.03;;
16468;SDS011;8345;50.902;6.956;2023-05-07T04:39:44;3.13;;;2.83;;
16468;SDS011;8345;50.902;6.956;2023-05-07T04:42:14;3.70;;;3.00;;
16468;SDS011;8345;50.902;6.956;2023-05-07T04:44:41;3.37;;;3.17;;
16468;SDS011;8345;50.902;6.956;2023-05-07T04:47:08;3.23;;;3.03;;
16468;SDS011;8345;50.902;6.956;2023-05-07T04:49:37;2.87;;;2.60;;
16468;SDS011;8345;50.902;6.956;2023-05-07T04:52:04;2.60;;;2.40;;
16468;SDS011;8345;50.902;6.956;2023-05-07T04:54:31;3.10;;;2.70;;
16468;SDS011;8345;50.902;6.956;2023-05-07T04:56:59;3.23;;;2.93;;
16468;SDS011;8345;50.902;6.956;2023-05-07T04:59:26;4.40;;;2.83;;
16468;SDS011;8345;50.902;6.956;2023-05-07T05:01:53;3.50;;;3.20;;
16468;SDS011;8345;50.902;6.956;2023-05-07T05:04:20;2.77;;;2.57;;
16468;SDS011;8345;50.902;6.956;2023-05-07T05:06:49;2.87;;;2.67;;
16468;SDS011;8345;50.902;6.956;2023-05-07T05:09:16;3.50;;;3.20;;
16468;SDS011;8345;50.902;6.956;2023-05-07T05:11:43;3.57;;;3.27;;
16468;SDS011;8345;50.902;6.956;2023-05-07T05:14:10;3.07;;;2.80;;
16468;SDS011;8345;50.902;6.956;2023-05-07T05:16:37;3.53;;;3.23;;
16468;SDS011;8345;50.902;6.956;2023-05-07T05:19:05;3.77;;;3.27;;
16468;SDS011;8345;50.902;6.956;2023-05-07T05:21:32;3.70;;;3.40;;
16468;SDS011;8345;50.902;6.956;2023-05-07T05:24:00;3.13;;;2.90;;
16468;SDS011;8345;50.902;6.956;2023-05-07T05:26:28;3.60;;;3.30;;
16468;SDS011;8345;50.902;6.956;2023-05-07T05:28:55;3.40;;;3.17;;
16468;SDS011;8345;50.902;6.956;2023-05-07T05:31:22;3.67;;;3.37;;
16468;SDS011;8345;50.902;6.956;2023-05-07T05:33:49;4.27;;;3.00;;
16468;SDS011;8345;50.902;6.956;2023-05-07T05:36:16;3.20;;;2.50;;
16468;SDS011;8345;50.902;6.956;2023-05-07T05:38:43;3.10;;;2.90;;
16468;SDS011;8345;50.902;6.956;2023-05-07T05:41:12;3.47;;;2.97;;
16468;SDS011;8345;50.902;6.956;2023-05-07T05:43:39;2.80;;;2.60;;
16468;SDS011;8345;50.902;6.956;2023-05-07T05:46:06;3.50;;;2.73;;
16468;SDS011;8345;50.902;6.956;2023-05-07T05:48:36;3.40;;;2.70;;
16468;SDS011;8345;50.902;6.956;2023-05-07T05:51:04;3.20;;;2.90;;
16468;SDS011;8345;50.902;6.956;2023-05-07T05:53:31;3.17;;;2.60;;
16468;SDS011;8345;50.902;6.956;2023-05-07T05:55:58;3.40;;;2.60;;
16468;SDS011;8345;50.902;6.956;2023-05-07T05:58:27;2.80;;;2.60;;
16468;SDS011;8345;50.902;6.956;2023-05-07T06:00:54;3.00;;;2.80;;
16468;SDS011;8345;50.902;6.956;2023-05-07T06:03:21;3.53;;;2.87;;
16468;SDS011;8345;50.902;6.956;2023-05-07T06:05:48;3.10;;;2.73;;
16468;SDS011;8345;50.902;6.956;2023-05-07T06:08:16;2.80;;;2.60;;
16468;SDS011;8345;50.902;6.956;2023-05-07T06:10:43;3.03;;;2.83;;
16468;SDS011;8345;50.902;6.956;2023-05-07T06:13:10;2.93;;;2.73;;
16468;SDS011;8345;50.902;6.956;2023-05-07T06:15:39;2.60;;;2.40;;
16468;SDS011;8345;50.902;6.956;2023-05-07T06:18:06;2.90;;;2.70;;
16468;SDS011;8345;50.902;6.956;2023-05-07T06:20:33;2.90;;;2.70;;
16468;SDS011;8345;50.902;6.956;2023-05-07T06:23:01;3.03;;;2.67;;
16468;SDS011;8345;50.902;6.956;2023-05-07T06:25:28;2.77;;;2.57;;
16468;SDS011;8345;50.902;6.956;2023-05-07T06:27:55;3.47;;;2.77;;
16468;SDS011;8345;50.902;6.956;2023-05-07T06:30:22;3.40;;;3.10;;
16468;SDS011;8345;50.902;6.956;2023-05-07T06:32:51;3.17;;;2.57;;
16468;SDS011;8345;50.902;6.956;2023-05-07T06:35:18;3.13;;;2.80;;
16468;SDS011;8345;50.902;6.956;2023-05-07T06:37:45;4.60;;;2.87;;
16468;SDS011;8345;50.902;6.956;2023-05-07T06:40:12;2.90;;;2.33;;
16468;SDS011;8345;50.902;6.956;2023-05-07T06:42:40;3.00;;;2.80;;
16468;SDS011;8345;50.902;6.956;2023-05-07T06:45:08;2.67;;;2.47;;
16468;SDS011;8345;50.902;6.956;2023-05-07T06:47:35;2.80;;;2.60;;
16468;SDS011;8345;50.902;6.956;2023-05-07T06:50:04;3.17;;;2.43;;
16468;SDS011;8345;50.902;6.956;2023-05-07T06:52:31;3.63;;;2.80;;
16468;SDS011;8345;50.902;6.956;2023-05-07T06:54:59;2.73;;;2.53;;
16468;SDS011;8345;50.902;6.956;2023-05-07T06:57:26;2.90;;;2.67;;
16468;SDS011;8345;50.902;6.956;2023-05-07T06:59:54;2.97;;;2.27;;
16468;SDS011;8345;50.902;6.956;2023-05-07T07:02:21;3.17;;;2.20;;
16468;SDS011;8345;50.902;6.956;2023-05-07T07:04:48;2.70;;;2.40;;
16468;SDS011;8345;50.902;6.956;2023-05-07T07:07:16;2.70;;;2.50;;
16468;SDS011;8345;50.902;6.956;2023-05-07T07:09:44;2.87;;;2.60;;
16468;SDS011;8345;50.902;6.956;2023-05-07T07:12:11;2.23;;;2.03;;
16468;SDS011;8345;50.902;6.956;2023-05-07T07:14:38;2.97;;;2.23;;
16468;SDS011;8345;50.902;6.956;2023-05-07T07:17:05;2.20;;;2.00;;
16468;SDS011;8345;50.902;6.956;2023-05-07T07:19:32;2.93;;;2.00;;
16468;SDS011;8345;50.902;6.956;2023-05-07T07:22:00;6.87;;;6.23;;
16468;SDS011;8345;50.902;6.956;2023-05-07T07:24:28;6.17;;;5.67;;
16468;SDS011;8345;50.902;6.956;2023-05-07T07:26:56;5.90;;;5.10;;
16468;SDS011;8345;50.902;6.956;2023-05-07T07:29:23;7.47;;;5.13;;
16468;SDS011;8345;50.902;6.956;2023-05-07T07:31:51;3.67;;;3.30;;
16468;SDS011;8345;50.902;6.956;2023-05-07T07:34:18;5.07;;;3.63;;
16468;SDS011;8345;50.902;6.956;2023-05-07T07:36:46;7.63;;;6.93;;
16468;SDS011;8345;50.902;6.956;2023-05-07T07:39:13;4.07;;;3.43;;
16468;SDS011;8345;50.902;6.956;2023-05-07T07:41:41;3.33;;;2.70;;
16468;SDS011;8345;50.902;6.956;2023-05-07T07:44:09;3.00;;;2.17;;
16468;SDS011;8345;50.902;6.956;2023-05-07T07:46:38;5.10;;;3.20;;
16468;SDS011;8345;50.902;6.956;2023-05-07T07:49:05;3.10;;;2.80;;
16468;SDS011;8345;50.902;6.956;2023-05-07T07:51:32;2.13;;;1.93;;
16468;SDS011;8345;50.902;6.956;2023-05-07T07:53:59;3.37;;;2.40;;
16468;SDS011;8345;50.902;6.956;2023-05-07T07:56:27;2.60;;;2.33;;
16468;SDS011;8345;50.902;6.956;2023-05-07T07:58:56;3.00;;;2.27;;
16468;SDS011;8345;50.902;6.956;2023-05-07T08:01:23;4.23;;;2.27;;
16468;SDS011;8345;50.902;6.956;2023-05-07T08:03:51;2.53;;;2.00;;
16468;SDS011;8345;50.902;6.956;2023-05-07T08:06:18;2.17;;;2.07;;
16468;SDS011;8345;50.902;6.956;2023-05-07T08:08:45;3.50;;;2.40;;
16468;SDS011;8345;50.902;6.956;2023-05-07T08:11:12;2.50;;;2.30;;
16468;SDS011;8345;50.902;6.956;2023-05-07T08:13:39;2.50;;;2.30;;
16468;SDS011;8345;50.902;6.956;2023-05-07T08:16:08;2.40;;;2.20;;
16468;SDS011;8345;50.902;6.956;2023-05-07T08:18:35;2.43;;;2.23;;
16468;SDS011;8345;50.902;6.956;2023-05-07T08:21:03;2.83;;;2.13;;
16468;SDS011;8345;50.902;6.956;2023-05-07T08:23:30;2.87;;;2.40;;
16468;SDS011;8345;50.902;6.956;2023-05-07T08:25:59;2.43;;;2.00;;
16468;SDS011;8345;50.902;6.956;2023-05-07T08:28:26;2.70;;;2.20;;
16468;SDS011;8345;50.902;6.956;2023-05-07T08:30:53;2.80;;;2.30;;
16468;SDS011;8345;50.902;6.956;2023-05-07T08:33:22;3.17;;;2.53;;
16468;SDS011;8345;50.902;6.956;2023-05-07T08:35:50;2.50;;;2.30;;
16468;SDS011;8345;50.902;6.956;2023-05-07T08:38:17;2.60;;;2.20;;
16468;SDS011;8345;50.902;6.956;2023-05-07T08:40:44;2.97;;;2.37;;
16468;SDS011;8345;50.902;6.956;2023-05-07T08:43:12;2.70;;;2.50;;
16468;SDS011;8345;50.902;6.956;2023-05-07T08:45:39;2.63;;;2.10;;
16468;SDS011;8345;50.902;6.956;2023-05-07T08:48:08;3.27;;;2.50;;
16468;SDS011;8345;50.902;6.956;2023-05-07T08:50:37;2.50;;;2.30;;
16468;SDS011;8345;50.902;6.956;2023-05-07T08:53:04;2.53;;;2.33;;
16468;SDS011;8345;50.902;6.956;2023-05-07T08:55:31;2.40;;;2.20;;
16468;SDS011;8345;50.902;6.956;2023-05-07T08:57:59;2.77;;;2.10;;
16468;SDS011;8345;50.902;6.956;2023-05-07T09:00:26;2.37;;;2.17;;
16468;SDS011;8345;50.902;6.956;2023-05-07T09:02:53;2.37;;;2.17;;
16468;SDS011;8345;50.902;6.956;2023-05-07T09:05:21;2.67;;;2.40;;
16468;SDS011;8345;50.902;6.956;2023-05-07T09:07:49;3.00;;;2.20;;
16468;SDS011;8345;50.902;6.956;2023-05-07T09:10:16;2.53;;;2.23;;
16468;SDS011;8345;50.902;6.956;2023-05-07T09:12:44;3.53;;;2.20;;
16468;SDS011;8345;50.902;6.956;2023-05-07T09:15:13;3.33;;;2.23;;
16468;SDS011;8345;50.902;6.956;2023-05-07T09:17:40;2.00;;;1.90;;
16468;SDS011;8345;50.902;6.956;2023-05-07T09:20:08;2.40;;;2.20;;
16468;SDS011;8345;50.902;6.956;2023-05-07T09:22:36;3.17;;;2.50;;
16468;SDS011;8345;50.902;6.956;2023-05-07T09:25:05;2.73;;;2.13;;
16468;SDS011;8345;50.902;6.956;2023-05-07T09:27:32;4.93;;;2.20;;
16468;SDS011;8345;50.902;6.956;2023-05-07T09:30:02;2.20;;;2.07;;
16468;SDS011;8345;50.902;6.956;2023-05-07T09:32:30;2.63;;;2.33;;
16468;SDS011;8345;50.902;6.956;2023-05-07T09:35:00;2.50;;;1.90;;
16468;SDS011;8345;50.902;6.956;2023-05-07T09:37:27;3.43;;;3.13;;
16468;SDS011;8345;50.902;6.956;2023-05-07T09:39:54;3.03;;;2.40;;
16468;SDS011;8345;50.902;6.956;2023-05-07T09:42:26;2.10;;;1.90;;
16468;SDS011;8345;50.902;6.956;2023-05-07T09:44:53;4.50;;;2.47;;
16468;SDS011;8345;50.902;6.956;2023-05-07T09:47:22;2.13;;;1.93;;
16468;SDS011;8345;50.902;6.956;2023-05-07T09:49:50;3.00;;;2.20;;
16468;SDS011;8345;50.902;6.956;2023-05-07T09:52:21;2.50;;;1.97;;
16468;SDS011;8345;50.902;6.956;2023-05-07T09:54:48;2.13;;;1.90;;
16468;SDS011;8345;50.902;6.956;2023-05-07T09:57:17;2.27;;;2.07;;
16468;SDS011;8345;50.902;6.956;2023-05-07T09:59:47;2.83;;;1.97;;
16468;SDS011;8345;50.902;6.956;2023-05-07T10:02:16;1.93;;;1.73;;
16468;SDS011;8345;50.902;6.956;2023-05-07T10:04:43;4.07;;;1.70;;
16468;SDS011;8345;50.902;6.956;2023-05-07T10:07:11;3.07;;;1.90;;
16468;SDS011;8345;50.902;6.956;2023-05-07T10:09:39;3.17;;;2.17;;
16468;SDS011;8345;50.902;6.956;2023-05-07T10:12:08;2.63;;;1.90;;
16468;SDS011;8345;50.902;6.956;2023-05-07T10:14:36;2.67;;;1.97;;
16468;SDS011;8345;50.902;6.956;2023-05-07T10:17:05;4.03;;;2.10;;
16468;SDS011;8345;50.902;6.956;2023-05-07T10:19:32;1.90;;;1.77;;
16468;SDS011;8345;50.902;6.956;2023-05-07T10:22:02;2.00;;;1.80;;
16468;SDS011;8345;50.902;6.956;2023-05-07T10:24:32;2.40;;;2.20;;
16468;SDS011;8345;50.902;6.956;2023-05-07T10:27:00;2.00;;;1.90;;
16468;SDS011;8345;50.902;6.956;2023-05-07T10:29:30;2.73;;;2.17;;
16468;SDS011;8345;50.902;6.956;2023-05-07T10:32:07;2.40;;;2.20;;
16468;SDS011;8345;50.902;6.956;2023-05-07T10:34:38;2.23;;;2.00;;
16468;SDS011;8345;50.902;6.956;2023-05-07T10:37:07;3.30;;;2.33;;
16468;SDS011;8345;50.902;6.956;2023-05-07T10:39:35;2.10;;;1.97;;
16468;SDS011;8345;50.902;6.956;2023-05-07T10:42:08;2.37;;;2.17;;
16468;SDS011;8345;50.902;6.956;2023-05-07T10:44:36;2.50;;;2.00;;
16468;SDS011;8345;50.902;6.956;2023-05-07T10:47:08;2.00;;;1.90;;
16468;SDS011;8345;50.902;6.956;2023-05-07T10:49:36;3.30;;;1.90;;
16468;SDS011;8345;50.902;6.956;2023-05-07T10:52:13;3.70;;;2.20;;
16468;SDS011;8345;50.902;6.956;2023-05-07T10:54:41;1.87;;;1.77;;
16468;SDS011;8345;50.902;6.956;2023-05-07T10:59:54;2.83;;;2.00;;
16468;SDS011;8345;50.902;6.956;2023-05-07T11:02:23;3.00;;;1.97;;
16468;SDS011;8345;50.902;6.956;2023-05-07T11:07:32;2.73;;;1.90;;
16468;SDS011;8345;50.902;6.956;2023-05-07T11:10:00;2.70;;;1.87;;
16468;SDS011;8345;50.902;6.956;2023-05-07T11:15:14;1.90;;;1.70;;
16468;SDS011;8345;50.902;6.956;2023-05-07T11:17:56;2.13;;;1.73;;
16468;SDS011;8345;50.902;6.956;2023-05-07T11:23:05;2.47;;;1.90;;
16468;SDS011;8345;50.902;6.956;2023-05-07T11:25:32;1.90;;;1.70;;
16468;SDS011;8345;50.902;6.956;2023-05-07T11:28:03;2.50;;;1.97;;
16468;SDS011;8345;50.902;6.956;2023-05-07T11:30:31;1.83;;;1.70;;
16468;SDS011;8345;50.902;6.956;2023-05-07T11:32:59;1.97;;;1.70;;
16468;SDS011;8345;50.902;6.956;2023-05-07T11:35:27;1.80;;;1.60;;
16468;SDS011;8345;50.902;6.956;2023-05-07T11:37:57;1.87;;;1.67;;
16468;SDS011;8345;50.902;6.956;2023-05-07T11:40:25;2.30;;;1.80;;
16468;SDS011;8345;50.902;6.956;2023-05-07T11:42:53;1.77;;;1.60;;
16468;SDS011;8345;50.902;6.956;2023-05-07T11:45:23;2.30;;;2.10;;
16468;SDS011;8345;50.902;6.956;2023-05-07T11:47:51;2.40;;;2.20;;
16468;SDS011;8345;50.902;6.956;2023-05-07T11:50:20;1.97;;;1.87;;
16468;SDS011;8345;50.902;6.956;2023-05-07T11:52:50;2.00;;;1.77;;
16468;SDS011;8345;50.902;6.956;2023-05-07T11:55:18;1.97;;;1.77;;
16468;SDS011;8345;50.902;6.956;2023-05-07T11:57:46;3.67;;;2.10;;
16468;SDS011;8345;50.902;6.956;2023-05-07T12:00:15;2.30;;;2.10;;
16468;SDS011;8345;50.902;6.956;2023-05-07T12:02:43;1.87;;;1.60;;
16468;SDS011;8345;50.902;6.956;2023-05-07T12:05:10;2.93;;;1.80;;
16468;SDS011;8345;50.902;6.956;2023-05-07T12:07:39;3.30;;;3.00;;
16468;SDS011;8345;50.902;6.956;2023-05-07T12:10:06;1.70;;;1.60;;
16468;SDS011;8345;50.902;6.956;2023-05-07T12:12:37;1.73;;;1.63;;
16468;SDS011;8345;50.902;6.956;2023-05-07T12:15:05;3.17;;;2.13;;
16468;SDS011;8345;50.902;6.956;2023-05-07T12:17:32;3.00;;;2.10;;
16468;SDS011;8345;50.902;6.956;2023-05-07T12:20:00;1.90;;;1.80;;
16468;SDS011;8345;50.902;6.956;2023-05-07T12:22:27;4.63;;;1.70;;
16468;SDS011;8345;50.902;6.956;2023-05-07T12:24:57;2.00;;;1.80;;
16468;SDS011;8345;50.902;6.956;2023-05-07T12:27:25;3.20;;;2.90;;
16468;SDS011;8345;50.902;6.956;2023-05-07T12:29:52;1.90;;;1.60;;
16468;SDS011;8345;50.902;6.956;2023-05-07T12:32:20;1.90;;;1.80;;
16468;SDS011;8345;50.902;6.956;2023-05-07T12:34:49;1.97;;;1.87;;
16468;SDS011;8345;50.902;6.956;2023-05-07T12:37:16;1.67;;;1.47;;
16468;SDS011;8345;50.902;6.956;2023-05-07T12:39:49;3.37;;;1.70;;
16468;SDS011;8345;50.902;6.956;2023-05-07T12:42:19;1.80;;;1.67;;
16468;SDS011;8345;50.902;6.956;2023-05-07T12:44:50;2.03;;;1.80;;
16468;SDS011;8345;50.902;6.956;2023-05-07T12:47:18;2.90;;;2.70;;
16468;SDS011;8345;50.902;6.956;2023-05-07T12:49:45;3.67;;;2.00;;
16468;SDS011;8345;50.902;6.956;2023-05-07T12:52:12;2.37;;;1.60;;
16468;SDS011;8345;50.902;6.956;2023-05-07T12:54:39;2.43;;;1.87;;
16468;SDS011;8345;50.902;6.956;2023-05-07T12:57:07;2.60;;;1.87;;
16468;SDS011;8345;50.902;6.956;2023-05-07T12:59:36;2.00;;;1.80;;
16468;SDS011;8345;50.902;6.956;2023-05-07T13:02:04;2.00;;;1.80;;
16468;SDS011;8345;50.902;6.956;2023-05-07T13:04:31;1.70;;;1.60;;
16468;SDS011;8345;50.902;6.956;2023-05-07T13:06:58;1.70;;;1.60;;
16468;SDS011;8345;50.902;6.956;2023-05-07T13:09:25;2.20;;;2.00;;
16468;SDS011;8345;50.902;6.956;2023-05-07T13:11:54;3.63;;;2.00;;
16468;SDS011;8345;50.902;6.956;2023-05-07T13:14:21;2.73;;;2.00;;
16468;SDS011;8345;50.902;6.956;2023-05-07T13:16:49;2.83;;;2.23;;
16468;SDS011;8345;50.902;6.956;2023-05-07T13:19:17;3.20;;;1.90;;
16468;SDS011;8345;50.902;6.956;2023-05-07T13:21:44;2.27;;;2.07;;
16468;SDS011;8345;50.902;6.956;2023-05-07T13:24:11;2.87;;;2.37;;
16468;SDS011;8345;50.902;6.956;2023-05-07T13:26:38;3.23;;;2.47;;
16468;SDS011;8345;50.902;6.956;2023-05-07T13:29:05;2.20;;;2.00;;
16468;SDS011;8345;50.902;6.956;2023-05-07T13:31:32;3.57;;;2.50;;
16468;SDS011;8345;50.902;6.956;2023-05-07T13:34:02;3.60;;;2.30;;
16468;SDS011;8345;50.902;6.956;2023-05-07T13:36:29;2.23;;;2.10;;
16468;SDS011;8345;50.902;6.956;2023-05-07T13:38:58;2.83;;;2.07;;
16468;SDS011;8345;50.902;6.956;2023-05-07T13:41:25;2.67;;;2.00;;
16468;SDS011;8345;50.902;6.956;2023-05-07T13:43:52;2.03;;;1.83;;
16468;SDS011;8345;50.902;6.956;2023-05-07T13:46:20;3.80;;;2.03;;
16468;SDS011;8345;50.902;6.956;2023-05-07T13:48:47;3.13;;;2.30;;
16468;SDS011;8345;50.902;6.956;2023-05-07T13:51:16;2.40;;;2.20;;
16468;SDS011;8345;50.902;6.956;2023-05-07T13:53:44;2.57;;;2.37;;
16468;SDS011;8345;50.902;6.956;2023-05-07T13:56:11;2.63;;;2.37;;
16468;SDS011;8345;50.902;6.956;2023-05-07T13:58:39;3.40;;;2.90;;
16468;SDS011;8345;50.902;6.956;2023-05-07T14:01:06;3.17;;;2.90;;
16468;SDS011;8345;50.902;6.956;2023-05-07T14:03:33;3.13;;;2.83;;
16468;SDS011;8345;50.902;6.956;2023-05-07T14:06:02;3.63;;;3.17;;
16468;SDS011;8345;50.902;6.956;2023-05-07T14:08:31;3.47;;;3.17;;
16468;SDS011;8345;50.902;6.956;2023-05-07T14:10:58;3.23;;;2.90;;
16468;SDS011;8345;50.902;6.956;2023-05-07T14:13:25;3.40;;;3.10;;
16468;SDS011;8345;50.902;6.956;2023-05-07T14:15:52;2.90;;;2.70;;
16468;SDS011;8345;50.902;6.956;2023-05-07T14:18:20;2.83;;;2.50;;
16468;SDS011;8345;50.902;6.956;2023-05-07T14:20:47;2.77;;;2.57;;
16468;SDS011;8345;50.902;6.956;2023-05-07T14:23:14;2.87;;;2.67;;
16468;SDS011;8345;50.902;6.956;2023-05-07T14:25:44;2.70;;;2.50;;
16468;SDS011;8345;50.902;6.956;2023-05-07T14:28:12;3.30;;;3.00;;
16468;SDS011;8345;50.902;6.956;2023-05-07T14:30:39;3.27;;;2.97;;
16468;SDS011;8345;50.902;6.956;2023-05-07T14:33:07;3.30;;;3.00;;
16468;SDS011;8345;50.902;6.956;2023-05-07T14:35:34;3.13;;;2.70;;
16468;SDS011;8345;50.902;6.956;2023-05-07T14:38:01;4.97;;;2.90;;
16468;SDS011;8345;50.902;6.956;2023-05-07T14:40:28;2.93;;;2.70;;
16468;SDS011;8345;50.902;6.956;2023-05-07T14:42:57;3.70;;;2.37;;
16468;SDS011;8345;50.902;6.956;2023-05-07T14:45:25;2.53;;;2.33;;
16468;SDS011;8345;50.902;6.956;2023-05-07T14:47:52;2.97;;;2.60;;
16468;SDS011;8345;50.902;6.956;2023-05-07T14:50:19;2.73;;;2.53;;
16468;SDS011;8345;50.902;6.956;2023-05-07T14:52:46;2.80;;;2.60;;
16468;SDS011;8345;50.902;6.956;2023-05-07T14:55:14;3.00;;;2.67;;
16468;SDS011;8345;50.902;6.956;2023-05-07T14:57:41;2.63;;;2.43;;
16468;SDS011;8345;50.902;6.956;2023-05-07T15:00:10;3.10;;;2.60;;
16468;SDS011;8345;50.902;6.956;2023-05-07T15:02:37;2.83;;;2.63;;
16468;SDS011;8345;50.902;6.956;2023-05-07T15:05:05;2.87;;;2.50;;
16468;SDS011;8345;50.902;6.956;2023-05-07T15:07:32;3.67;;;3.00;;
16468;SDS011;8345;50.902;6.956;2023-05-07T15:10:00;3.40;;;2.70;;
16468;SDS011;8345;50.902;6.956;2023-05-07T15:12:27;2.83;;;2.63;;
16468;SDS011;8345;50.902;6.956;2023-05-07T15:14:54;4.90;;;3.23;;